Terminal Aerodrome Forecast
Issued by NWS

Home | Current Version | Previous Version | Text Only | Print | Product List | Glossary On
Versions: 1 2 3 4 5 6 7 8 9 10 11 12 13 14
000
FTUS46 KSEW 011744
TAFOLM
TAF
KOLM 011744Z 0118/0218 28006KT 3SM -RA BR BKN010 OVC020
     FM011900 22010KT P6SM -SHRA BKN025 OVC050
     FM012000 20008KT P6SM -SHRA SCT030 BKN045
     FM020800 20008KT P6SM BKN022 OVC035=

USA.gov is the U.S. government's official web portal to all federal, state and local government web resources and services.